Latest Weather Observations for Gabo Island

IDV60801

Issued at 7:22 am EST Thursday 23 May 2024 (issued every 10 minutes, with the page automatically refreshed every 10 minutes)

About weather observations | Map of weather stations | Latest weather observations for VIC | Other Formats
Station Details ID: 084016 Name: GABO ISLAND LIGHTHOUSE Lat: -37.57 Lon: 149.92 Height: 15.0 m
Data from the previous 72 hours. | See also: Recent months at Gabo Island
Date/Time
EST
Temp
°C
App
Temp
°C
Dew
Point
°C
Rel
Hum
%
Delta-T
°C
Wind Press
QNH
hPa
Press
MSL
hPa
Rain since
9am
mm
Dir  Spd
km/h
Gust
km/h
Spd
kts
Gust
kts
23/07:00am 10.7 6.5 8.3 85 1.2 W 20 26 11 14 1026.8 1026.8 0.0
23/06:30am 10.6 6.3 8.0 84 1.3 WNW 20 24 11 13 1026.4 1026.4 0.0
23/06:00am 10.7 6.1 8.3 85 1.2 WNW 22 28 12 15 1026.4 1026.4 0.0
23/05:30am 10.6 6.4 8.2 85 1.2 WNW 20 28 11 15 1026.2 1026.2 0.0
23/05:00am 11.1 6.6 8.7 85 1.2 W 22 28 12 15 1025.9 1025.9 0.0
23/04:30am 11.0 6.9 8.6 85 1.2 WNW 20 26 11 14 1025.6 1025.6 0.0
23/04:00am 11.0 6.5 8.6 85 1.2 WNW 22 28 12 15 1025.6 1025.6 0.0
23/03:30am 10.9 6.8 8.7 86 1.1 WNW 20 28 11 15 1025.6 1025.6 0.0
23/03:00am 11.0 6.6 8.8 86 1.1 WNW 22 30 12 16 1025.6 1025.6 0.0
23/02:30am 11.3 7.3 9.0 86 1.1 W 20 30 11 16 1025.7 1025.7 0.0
23/02:00am 11.5 7.2 9.2 86 1.1 W 22 30 12 16 1025.6 1025.6 0.0
23/01:30am 11.4 7.5 9.3 87 1.1 WNW 20 26 11 14 1025.9 1025.9 0.0
23/01:00am 11.6 7.3 9.5 87 1.1 WNW 22 28 12 15 1025.9 1025.9 0.0
23/12:30am 11.7 7.8 9.6 87 1.1 WNW 20 26 11 14 1025.9 1025.9 0.0
23/12:00am 11.7 7.8 9.6 87 1.1 WNW 20 28 11 15 1026.0 1026.0 0.0
 
Date/Time
EST
Temp
°C
App
Temp
°C
Dew
Point
°C
Rel
Hum
%
Delta-T
°C
Wind Press
QNH
hPa
Press
MSL
hPa
Rain since
9am
mm
Dir  Spd
km/h
Gust
km/h
Spd
kts
Gust
kts
22/11:30pm 11.7 7.9 9.8 88 1.0 WNW 20 26 11 14 1026.1 1026.1 0.0
22/11:00pm 12.0 8.2 9.9 87 1.1 WNW 20 28 11 15 1026.1 1026.1 0.0
22/10:30pm 12.3 8.2 10.2 87 1.1 W 22 26 12 14 1026.1 1026.1 0.0
22/10:00pm 12.4 8.7 10.1 86 1.2 WNW 20 26 11 14 1026.2 1026.2 0.0
22/09:30pm 12.7 8.7 10.4 86 1.2 W 22 30 12 16 1026.3 1026.3 0.0
22/09:00pm 12.9 9.2 10.3 84 1.3 W 20 28 11 15 1026.2 1026.2 0.0
22/08:30pm 13.2 9.6 10.6 84 1.4 W 20 26 11 14 1026.2 1026.2 0.0
22/08:00pm 13.2 9.6 10.6 84 1.3 W 20 26 11 14 1026.2 1026.2 0.0
22/07:30pm 13.2 9.6 10.4 83 1.5 W 20 28 11 15 1026.2 1026.2 0.0
22/07:00pm 13.7 10.1 10.7 82 1.6 W 20 26 11 14 1026.0 1026.0 0.0
22/06:30pm 14.0 9.6 10.4 79 1.9 W 24 30 13 16 1025.9 1025.9 0.0
22/06:00pm 14.1 9.0 10.7 80 1.8 WSW 28 33 15 18 1025.7 1025.7 0.0
22/05:30pm 14.2 9.5 10.6 79 1.9 WSW 26 32 14 17 1025.4 1025.4 0.0
22/05:00pm 14.3 10.0 10.7 79 1.9 WSW 24 32 13 17 1025.0 1025.0 0.0
22/04:30pm 14.7 9.2 10.7 77 2.1 WSW 30 35 16 19 1025.0 1025.0 0.0
22/04:00pm 15.1 10.0 10.5 74 2.4 WSW 28 35 15 19 1025.0 1025.0 0.0
22/03:30pm 15.6 10.6 10.8 73 2.5 WSW 28 35 15 19 1024.9 1024.9 0.0
22/03:00pm 15.7 10.7 11.1 74 2.4 WSW 28 37 15 20 1024.8 1024.8 0.0
22/02:30pm 16.0 12.8 11.8 76 2.3 WSW 20 28 11 15 1025.0 1025.0 0.0
22/02:00pm 16.2 12.5 11.4 73 2.6 WSW 22 28 12 15 1025.0 1025.0 0.0
22/01:30pm 15.5 11.2 10.7 73 2.5 WSW 24 30 13 16 1025.1 1025.1 0.0
22/01:00pm 14.4 9.5 9.8 74 2.4 W 26 33 14 18 1025.4 1025.4 0.0
22/12:30pm 15.4 10.2 10.2 71 2.7 WSW 28 35 15 19 1025.9 1025.9 0.0
22/12:00pm 15.8 10.9 11.2 74 2.5 WSW 28 37 15 20 1026.2 1026.2 0.0
22/11:30am 14.0 10.3 10.0 77 2.1 W 20 28 11 15 1026.7 1026.7 0.0
22/11:00am 13.7 9.5 9.9 78 1.9 W 22 32 12 17 1027.1 1027.1 0.0
22/10:30am 13.7 8.8 9.9 78 2.0 W 26 33 14 18 1027.2 1027.2 0.0
22/10:00am 13.5 9.4 10.1 80 1.7 W 22 30 12 16 1027.2 1027.2 0.0
22/09:30am 13.5 10.0 10.1 80 1.8 WNW 19 26 10 14 1027.3 1027.3 0.0
22/09:00am 13.2 9.6 10.0 81 1.6 WNW 19 26 10 14 1027.3 1027.3 0.0
22/08:30am 12.9 8.3 9.7 81 1.6 W 24 32 13 17 1027.2 1027.2 0.0
22/08:00am 12.6 9.0 9.8 83 1.4 W 19 24 10 13 1027.1 1027.1 0.0
22/07:30am 12.4 8.8 9.8 84 1.3 WNW 19 28 10 15 1026.8 1026.8 0.0
22/07:00am 12.3 9.0 9.7 84 1.3 WNW 17 26 9 14 1026.8 1026.8 0.0
22/06:30am 12.3 9.0 9.7 84 1.3 WNW 17 22 9 12 1026.7 1026.7 0.0
22/06:00am 12.1 9.2 9.8 86 1.2 WNW 15 22 8 12 1026.5 1026.5 0.0
22/05:30am 12.5 7.3 10.4 87 1.1 W 28 33 15 18 1026.6 1026.6 0.0
22/05:00am 12.5 7.3 10.2 86 1.2 W 28 33 15 18 1026.4 1026.4 0.0
22/04:30am 13.0 8.3 10.5 85 1.3 W 26 32 14 17 1026.3 1026.3 0.0
22/04:00am 13.2 8.0 10.4 83 1.4 W 28 35 15 19 1026.3 1026.3 0.0
22/03:30am 13.0 9.3 10.0 82 1.5 W 20 28 11 15 1026.4 1026.4 0.0
22/03:00am 12.4 9.1 9.6 83 1.4 WNW 17 24 9 13 1026.4 1026.4 0.0
22/02:30am 12.1 8.4 9.5 84 1.3 WNW 19 24 10 13 1026.6 1026.6 0.0
22/02:00am 12.2 8.9 9.4 83 1.4 WNW 17 20 9 11 1026.8 1026.8 0.0
22/01:30am 12.2 8.9 9.4 83 1.4 WNW 17 22 9 12 1026.9 1026.9 0.0
22/01:00am 11.9 8.6 9.6 86 1.2 WNW 17 20 9 11 1027.1 1027.1 0.0
22/12:30am 12.1 8.8 9.5 84 1.3 WNW 17 24 9 13 1027.3 1027.3 0.0
22/12:00am 12.5 9.2 9.7 83 1.4 WNW 17 22 9 12 1027.4 1027.4 0.0
 
Date/Time
EST
Temp
°C
App
Temp
°C
Dew
Point
°C
Rel
Hum
%
Delta-T
°C
Wind Press
QNH
hPa
Press
MSL
hPa
Rain since
9am
mm
Dir  Spd
km/h
Gust
km/h
Spd
kts
Gust
kts
21/11:30pm 12.8 9.7 10.2 84 1.3 WNW 17 22 9 12 1027.5 1027.5 0.0
21/11:00pm 13.0 9.3 10.0 82 1.5 WNW 20 26 11 14 1027.5 1027.5 0.0
21/10:30pm 13.9 10.3 9.7 76 2.2 WSW 19 33 10 18 1027.6 1027.6 0.0
21/10:00pm 15.1 9.0 8.1 63 3.5 SSW 30 35 16 19 1027.7 1027.7 0.0
21/09:30pm 15.0 8.9 8.3 64 3.4 SSW 30 37 16 20 1027.9 1027.9 0.0
21/09:00pm 15.1 8.5 7.6 61 3.7 SSW 32 37 17 20 1027.9 1027.9 0.0
21/08:30pm 15.2 8.6 8.4 64 3.4 SSW 33 39 18 21 1027.8 1027.8 0.0
21/08:00pm 15.2 8.7 8.0 62 3.6 SSW 32 39 17 21 1027.9 1027.9 0.0
21/07:30pm 15.3 8.8 8.1 62 3.6 SSW 32 35 17 19 1027.9 1027.9 0.0
21/07:00pm 15.1 8.3 6.9 58 4.0 SW 32 41 17 22 1027.9 1027.9 0.0
21/06:30pm 15.3 8.6 8.3 63 3.5 SSW 33 39 18 21 1027.8 1027.8 0.0
21/06:00pm 15.3 7.9 8.5 64 3.4 SSW 37 44 20 24 1027.6 1027.6 0.0
21/05:30pm 15.5 8.6 8.7 64 3.5 SSW 35 43 19 23 1027.3 1027.3 0.0
21/05:00pm 15.6 9.0 8.6 63 3.5 SW 33 39 18 21 1027.1 1027.1 0.0
21/04:30pm 15.5 8.9 7.8 60 3.8 SSW 32 39 17 21 1027.2 1027.2 0.0
21/04:00pm 15.6 8.6 8.6 63 3.5 SW 35 41 19 22 1027.1 1027.1 0.0
21/03:30pm 15.7 8.4 8.9 64 3.5 SW 37 44 20 24 1027.1 1027.1 0.0
21/03:00pm 15.4 8.0 10.0 70 2.8 SW 39 48 21 26 1027.0 1027.0 0.0
21/02:30pm 15.5 8.0 9.4 67 3.1 SW 39 48 21 26 1027.0 1027.0 0.0
21/02:00pm 15.6 7.9 8.6 63 3.5 SW 39 46 21 25 1026.9 1026.9 0.0
21/01:30pm 15.7 8.4 8.9 64 3.5 SW 37 44 20 24 1027.0 1027.0 0.0
21/01:00pm 16.5 9.1 8.5 59 4.1 SW 37 46 20 25 1027.3 1027.3 0.0
21/12:30pm 16.3 8.8 7.8 57 4.3 SW 37 46 20 25 1027.6 1027.6 0.0
21/12:00pm 16.0 8.3 8.7 62 3.7 SW 39 48 21 26 1027.9 1027.9 0.0
21/11:30am 16.1 8.6 9.3 64 3.5 SW 39 46 21 25 1028.0 1028.0 0.0
21/11:00am 15.9 8.6 8.9 63 3.6 SW 37 44 20 24 1028.3 1028.3 0.0
21/10:30am 15.5 8.5 8.5 63 3.5 SW 35 43 19 23 1028.3 1028.3 0.0
21/10:00am 15.1 8.7 9.5 69 2.9 WSW 33 41 18 22 1028.3 1028.3 0.0
21/09:30am 14.4 9.2 10.2 76 2.2 WSW 28 35 15 19 1028.4 1028.4 0.0
21/09:00am 14.2 8.7 10.4 78 2.0 WSW 30 37 16 20 1028.4 1028.4 2.0
21/08:30am 13.4 7.4 10.0 80 1.8 WSW 32 37 17 20 1028.3 1028.3 2.0
21/08:00am 13.5 7.2 9.7 78 1.9 WSW 33 39 18 21 1028.0 1028.0 2.0
21/07:30am 13.3 7.1 9.9 80 1.7 WSW 33 39 18 21 1027.9 1027.9 2.0
21/07:00am 13.0 7.0 10.2 83 1.4 WSW 32 39 17 21 1027.7 1027.7 2.0
21/06:30am 13.6 7.3 9.8 78 2.0 WSW 33 46 18 25 1027.3 1027.3 2.0
21/06:00am 14.8 8.0 9.4 70 2.8 SW 35 44 19 24 1027.2 1027.2 2.0
21/05:30am 14.8 7.8 10.0 73 2.5 SW 37 48 20 26 1027.1 1027.1 2.0
21/05:23am 14.5 8.7 10.9 79 1.9 SW 32 43 17 23 1027.0 1027.0 2.0
21/05:00am 13.2 8.9 10.7 85 1.3 W 24 32 13 17 1027.0 1027.0 2.0
21/04:30am 13.7 10.0 11.6 87 1.1 SW 22 43 12 23 1027.1 1027.1 2.0
21/04:00am 13.5 8.1 11.0 85 1.3 SW 30 48 16 26 1027.0 1027.0 2.0
21/03:30am 13.8 7.2 11.5 86 1.2 SW 37 46 20 25 1026.9 1026.9 2.0
21/03:00am 12.9 5.4 12.0 94 0.5 SSW 43 48 23 26 1027.2 1027.2 1.6
21/02:30am 13.4 5.9 12.0 91 0.8 SSW 43 50 23 27 1027.2 1027.2 0.6
21/02:00am 13.3 6.5 11.9 91 0.7 SSW 39 46 21 25 1027.3 1027.3 0.2
21/01:30am 12.9 4.4 10.6 86 1.2 SSW 46 57 25 31 1027.3 1027.3 0.0
21/01:00am 14.9 9.0 11.3 79 1.9 SSW 33 44 18 24 1027.2 1027.2 0.0
21/12:30am 13.7 8.7 10.9 83 1.5 W 28 35 15 19 1027.2 1027.2 0.0
21/12:00am 13.8 8.8 10.8 82 1.6 WSW 28 39 15 21 1027.3 1027.3 0.0
 
Date/Time
EST
Temp
°C
App
Temp
°C
Dew
Point
°C
Rel
Hum
%
Delta-T
°C
Wind Press
QNH
hPa
Press
MSL
hPa
Rain since
9am
mm
Dir  Spd
km/h
Gust
km/h
Spd
kts
Gust
kts
20/11:30pm 13.5 8.0 10.7 83 1.5 W 30 35 16 19 1027.5 1027.5 0.0
20/11:00pm 13.5 8.5 10.9 84 1.4 W 28 35 15 19 1027.5 1027.5 0.0
20/10:30pm 13.4 7.6 10.9 85 1.3 W 32 39 17 21 1027.6 1027.6 0.0
20/10:00pm 13.3 7.9 11.0 86 1.2 W 30 37 16 20 1027.7 1027.7 0.0
20/09:30pm 13.3 7.6 11.0 86 1.2 WSW 32 37 17 20 1027.5 1027.5 0.0
20/09:00pm 13.2 7.8 10.9 86 1.2 WSW 30 35 16 19 1027.4 1027.4 0.0
20/08:30pm 13.1 7.1 10.8 86 1.2 W 33 41 18 22 1027.2 1027.2 0.0
20/08:00pm 13.1 7.1 10.8 86 1.2 W 33 43 18 23 1026.8 1026.8 0.0
20/07:30pm 13.1 7.2 11.0 87 1.1 W 33 41 18 22 1026.8 1026.8 0.0
20/07:00pm 13.3 7.6 11.0 86 1.2 WSW 32 39 17 21 1026.5 1026.5 0.0
20/06:30pm 13.5 7.8 11.2 86 1.2 WSW 32 39 17 21 1026.4 1026.4 0.0
20/06:00pm 13.7 7.8 11.0 84 1.4 WSW 33 39 18 21 1026.1 1026.1 0.0
20/05:30pm 14.3 8.1 11.3 82 1.6 WSW 35 44 19 24 1025.8 1025.8 0.0
20/05:00pm 14.4 8.8 11.6 83 1.5 WSW 32 39 17 21 1025.5 1025.5 0.0
20/04:30pm 14.5 8.7 11.5 82 1.6 WSW 33 43 18 23 1025.2 1025.2 0.0
20/04:00pm 15.0 8.5 11.6 80 1.8 WSW 37 46 20 25 1024.9 1024.9 0.0
20/03:30pm 15.3 8.7 11.5 78 2.0 SW 37 46 20 25 1024.8 1024.8 0.0
20/03:00pm 15.8 9.2 11.4 75 2.4 SW 37 46 20 25 1024.7 1024.7 0.0
20/02:30pm 15.7 8.8 11.5 76 2.3 SW 39 50 21 27 1024.5 1024.5 0.0
20/02:00pm 15.6 8.4 12.0 79 1.9 SW 41 50 22 27 1024.2 1024.2 0.0
20/01:30pm 15.8 9.0 12.0 78 2.1 SW 39 48 21 26 1024.2 1024.2 0.0
20/01:00pm 15.6 8.8 12.0 79 1.9 SW 39 46 21 25 1024.3 1024.3 0.0
20/12:30pm 15.2 9.1 11.8 80 1.8 WSW 35 44 19 24 1024.4 1024.4 0.0
20/12:00pm 14.3 8.7 11.5 83 1.5 WSW 32 41 17 22 1024.6 1024.6 0.0
20/11:30am 13.9 8.0 11.1 83 1.5 WSW 33 41 18 22 1024.8 1024.8 0.0
20/11:00am 14.1 8.5 11.4 84 1.4 WSW 32 39 17 21 1025.0 1025.0 0.0
20/10:30am 13.7 8.6 11.8 88 1.0 W 30 39 16 21 1024.9 1024.9 0.0
20/10:00am 13.2 7.4 10.9 86 1.2 W 32 39 17 21 1024.7 1024.7 0.0
20/09:30am 12.5 7.5 10.9 90 0.8 W 28 41 15 22 1024.4 1024.4 0.0
20/09:00am 12.8 6.9 11.2 90 0.8 W 33 41 18 22 1024.1 1024.1 3.4
20/08:30am 12.4 6.7 11.0 91 0.7 W 32 39 17 21 1024.1 1024.1 3.4
20/08:00am 12.0 5.6 10.6 91 0.7 W 35 43 19 23 1023.9 1023.9 3.4
20/07:30am 11.5 7.0 10.1 91 0.7 WNW 24 32 13 17 1023.5 1023.5 3.4

Other formats

Comma delimited format used in spreadsheet applications
http://www.bom.gov.au/fwo/IDV60801/IDV60801.94933.axf

JavaScript Object Notation format (JSON) in row-major order
http://www.bom.gov.au/fwo/IDV60801/IDV60801.94933.json

Data quality

Most of these data are generated automatically and are frequently updated. Quality checks on data are not normally performed. It is possible for incorrect values to appear. Refer to information at About Latest Weather Observations and please check the disclaimer before using these data.